Pemaquid Point Lighthouse, ME

43° 50' 13"N, 69° 30' 22"W, Elevation 40 ft.
Eastern Time

Hourly observations for the last 72 hours

Date Time Temperature (°F) Humi-
dity

(%)
Wind
(mph)
Pressure Rain (in) Sun
(W/m2)
UV ET
(in)
Air Dew 6 Hour 1 Hr 3 Hr 6 Hr Day
Alt
(in)
Sea
Level

(mb)
Max Min
19 23:00 14.6 -2.4 46 N 5 G 11 30.50 1032.8 0.00 0 0.0 0.068
19 22:00 15.6 -1.5 46 N 5 G 13 30.50 1032.9 0.00 0 0.0 0.067
19 21:00 17.0 0.2 47 NNW 7 G 13 30.49 1032.5 0.00 0 0.0 0.066
19 20:00 18.7 0.4 44 NNW 3 G 17 30.47 1031.8 0.00 0 0.0 0.065
19 19:00 19.8 0.9 25.1 19.8 43 NNW 3 G 7 30.45 1031.1 0.00 0 0.0 0.063
19 18:00 21.4 0.8 40 NW 11 G 20 30.42 1030.0 0.00 0 0.0 0.061
19 17:00 24.0 3.7 41 WNW 10 G 16 30.39 1029.0 0.00 21 0.0 0.058
19 16:00 24.9 4.0 40 WNW 13 G 19 30.39 1029.1 0.00 176 0.0 0.052
19 15:00 24.7 3.8 40 W 13 G 20 30.38 1029.0 0.00 431 0.7 0.044
19 14:00 23.9 2.0 38 NW 12 G 24 30.37 1028.6 0.00 577 1.3 0.036
19 13:00 22.3 3.2 22.3 11.8 43 NW 12 G 25 30.38 1028.6 0.00 666 1.7 0.027
19 12:00 20.6 3.5 47 NW 15 G 29 30.39 1029.1 0.00 580 1.9 0.019
19 11:00 19.3 5.4 54 NW 14 G 22 30.39 1029.1 0.00 654 1.6 0.012
19 10:00 16.4 3.4 56 NW 20 G 30 30.38 1028.7 0.00 118 0.7 0.010
19 09:00 14.2 3.2 61 NW 19 G 30 30.37 1028.5 0.00 37 0.0 0.008
19 08:00 12.6 4.0 68 WNW 14 G 32 30.35 1027.7 0.00 28 0.0 0.007
19 07:00 11.8 3.3 14.8 11.7 68 WNW 14 G 29 30.33 1027.0 0.00 16 0.0 0.006
19 06:00 12.1 3.2 67 WNW 17 G 25 30.30 1025.9 0.00 0 0.0 0.005
19 05:00 12.9 4.0 67 WNW 16 G 24 30.26 1024.9 0.00 0 0.0 0.004
19 04:00 13.4 3.8 65 WNW 15 G 27 30.24 1023.9 0.00 0 0.0 0.003
19 03:00 14.1 4.8 66 WNW 14 G 29 30.20 1022.8 0.00 0 0.0 0.002
19 02:00 14.7 5.4 66 WNW 16 G 25 30.17 1021.9 0.00 0 0.0 0.001
19 01:00 14.2 5.9 19.0 14.1 69 NW 10 G 22 30.16 1021.3 0.00 0 0.0 0.000
19 00:00 14.6 5.6 67 WNW 15 G 28 30.13 1020.5 0.00 0 0.0 0.024
18 23:00 16.7 8.0 68 NW 12 G 35 30.09 1019.1 0.00 0 0.0 0.023
18 22:00 18.9 12.6 76 NW 17 G 29 30.05 1017.7 0.00 0 0.0 0.022
18 21:00 19.0 15.5 86 WNW 9 G 13 30.03 1017.0 0.00 0 0.0 0.022
18 20:00 18.5 15.3 87 NW 6 G 10 29.99 1015.5 0.00 0 0.0 0.022
18 19:00 18.0 14.5 21.1 17.8 86 NW 5 G 11 29.95 1014.4 0.00 0 0.0 0.022
18 18:00 18.0 14.5 86 NNW 7 G 12 29.91 1013.0 0.00 0 0.0 0.022
18 17:00 19.5 16.0 86 NNW 7 G 13 29.89 1012.2 0.00 11 0.0 0.021
18 16:00 20.2 16.7 86 NNW 9 G 15 29.86 1011.3 0.00 65 0.0 0.020
18 15:00 20.5 17.0 86 N 7 G 13 29.85 1010.8 0.00 130 0.0 0.018
18 14:00 20.4 16.6 85 NNW 8 G 14 29.84 1010.7 0.00 163 0.5 0.016
18 13:00 20.1 14.9 23.1 19.4 80 N 5 G 10 29.84 1010.4 0.00 107 0.0 0.015
18 12:00 20.0 15.7 83 N 9 G 15 29.85 1010.7 0.00 120 0.5 0.013
18 11:00 20.1 16.3 85 N 10 G 16 29.86 1011.4 0.00 123 0.5 0.012
18 10:00 20.0 16.2 85 NNE 8 G 17 29.89 1012.2 0.00 100 0.0 0.011
18 09:00 20.5 17.0 86 NNE 12 G 20 29.90 1012.7 0.00 46 0.0 0.010
18 08:00 22.0 17.4 82 NNE 15 G 24 29.92 1013.4 0.00 16 0.0 0.009
18 07:00 23.0 17.5 27.6 23.0 79 NNE 14 G 22 29.92 1013.3 0.00 7 0.0 0.008
18 06:00 24.5 17.4 74 NE 15 G 21 29.94 1014.1 0.00 0 0.0 0.007
18 05:00 25.6 17.5 71 NE 15 G 18 29.96 1014.5 0.00 0 0.0 0.005
18 04:00 26.6 18.5 71 NE 14 G 20 29.97 1014.9 0.00 0 0.0 0.003
18 03:00 27.4 18.9 70 NE 13 G 17 29.99 1015.5 0.00 0 0.0 0.002
18 02:00 27.5 19.3 71 NE 10 G 13 30.01 1016.3 0.00 0 0.0 0.001
18 01:00 26.2 17.8 27.8 25.0 70 N 5 G 7 30.02 1016.7 0.00 0 0.0 0.000
18 00:00 26.3 17.8 70 NNW 4 G 6 30.03 1017.0 0.00 0 0.0 0.062
17 23:00 25.8 18.3 73 NW 4 G 5 30.03 1016.9 0.00 0 0.0 0.061
17 22:00 26.5 18.0 70 NNW 4 G 5 30.03 1016.9 0.00 0 0.0 0.060
17 21:00 25.4 18.0 73 NNW 5 G 6 30.05 1017.6 0.00 0 0.0 0.059
17 20:00 25.2 17.1 71 W 2 G 4 30.05 1017.8 0.00 0 0.0 0.058
17 19:00 27.7 17.1 31.1 27.6 64 W 4 G 6 30.06 1017.9 0.00 0 0.0 0.057
17 18:00 28.3 17.7 64 SW 3 G 8 30.06 1017.8 0.00 0 0.0 0.056
17 17:00 28.2 16.9 62 SW 3 G 10 30.05 1017.5 0.00 16 0.0 0.054
17 16:00 29.8 18.0 61 SW 11 G 14 30.08 1018.6 0.00 93 0.0 0.049
17 15:00 30.3 7.1 37 W 7 G 12 30.05 1017.7 0.00 427 0.7 0.042
17 14:00 29.9 10.6 44 WNW 5 G 11 30.05 1017.7 0.00 554 1.4 0.034
17 13:00 29.0 13.1 29.0 18.1 51 E 3 G 7 30.06 1018.0 0.00 640 1.9 0.025
17 12:00 26.7 11.4 52 WNW 7 G 12 30.08 1018.6 0.00 573 2.2 0.017
17 11:00 24.6 10.3 54 WNW 6 G 11 30.10 1019.3 0.00 631 2.0 0.010
17 10:00 22.6 10.8 60 NNW 7 G 14 30.11 1019.6 0.00 529 0.9 0.008
17 09:00 20.7 10.8 65 NW 5 G 14 30.09 1019.1 0.00 40 0.0 0.007
17 08:00 19.4 11.2 70 NNW 5 G 9 30.08 1018.5 0.00 30 0.0 0.006
17 07:00 18.1 10.6 23.0 18.1 72 N 3 G 6 30.05 1017.7 0.00 16 0.0 0.006
17 06:00 19.2 10.7 69 NNW 5 G 8 30.02 1016.5 0.00 0 0.0 0.005
17 05:00 20.4 11.2 67 NNW 5 G 9 30.01 1016.3 0.00 0 0.0 0.004
17 04:00 21.1 12.2 68 NW 8 G 14 29.98 1015.2 0.00 0 0.0 0.003
17 03:00 21.8 13.5 70 NW 5 G 12 29.98 1015.1 0.00 0 0.0 0.002
17 02:00 22.2 12.9 67 NW 8 G 14 29.97 1014.9 0.00 0 0.0 0.001
17 01:00 23.0 13.7 32.6 23.0 67 WNW 9 G 16 29.95 1014.2 0.00 0 0.0 0.000
17 00:00 23.6 13.6 65 WNW 12 G 18 29.94 1013.9 0.01 0 0.0 0.068

Data generated by WxSolution Version 1.9.1.5, Build 2018.05.20.